sensor_id;sensor_type;location;lat;lon;timestamp;P1;durP1;ratioP1;P2;durP2;ratioP2
71164;SDS011;58859;55.132;-1.586;2022-10-16T00:01:16;3.33;;;0.95;;
71164;SDS011;58859;55.132;-1.586;2022-10-16T00:03:43;1.38;;;0.80;;
71164;SDS011;58859;55.132;-1.586;2022-10-16T00:06:09;2.65;;;0.80;;
71164;SDS011;58859;55.132;-1.586;2022-10-16T00:08:36;3.38;;;0.70;;
71164;SDS011;58859;55.132;-1.586;2022-10-16T00:11:04;2.80;;;1.00;;
71164;SDS011;58859;55.132;-1.586;2022-10-16T00:13:31;3.53;;;0.85;;
71164;SDS011;58859;55.132;-1.586;2022-10-16T00:15:58;2.03;;;1.08;;
71164;SDS011;58859;55.132;-1.586;2022-10-16T00:18:24;5.55;;;1.10;;
71164;SDS011;58859;55.132;-1.586;2022-10-16T00:20:51;4.95;;;1.02;;
71164;SDS011;58859;55.132;-1.586;2022-10-16T00:23:16;3.43;;;0.70;;
71164;SDS011;58859;55.132;-1.586;2022-10-16T00:25:42;2.75;;;0.80;;
71164;SDS011;58859;55.132;-1.586;2022-10-16T00:28:08;0.80;;;0.80;;
71164;SDS011;58859;55.132;-1.586;2022-10-16T00:30:33;1.53;;;0.80;;
71164;SDS011;58859;55.132;-1.586;2022-10-16T00:32:59;2.38;;;0.50;;
71164;SDS011;58859;55.132;-1.586;2022-10-16T00:35:24;1.47;;;0.60;;
71164;SDS011;58859;55.132;-1.586;2022-10-16T00:37:50;1.70;;;0.73;;
71164;SDS011;58859;55.132;-1.586;2022-10-16T00:40:15;2.17;;;0.50;;
71164;SDS011;58859;55.132;-1.586;2022-10-16T00:42:41;1.70;;;0.50;;
71164;SDS011;58859;55.132;-1.586;2022-10-16T00:45:07;1.77;;;0.60;;
71164;SDS011;58859;55.132;-1.586;2022-10-16T00:47:34;2.30;;;0.80;;
71164;SDS011;58859;55.132;-1.586;2022-10-16T00:50:09;1.02;;;0.50;;
71164;SDS011;58859;55.132;-1.586;2022-10-16T00:52:39;3.97;;;1.05;;
71164;SDS011;58859;55.132;-1.586;2022-10-16T00:55:07;3.03;;;0.60;;
71164;SDS011;58859;55.132;-1.586;2022-10-16T00:57:33;4.37;;;0.60;;
71164;SDS011;58859;55.132;-1.586;2022-10-16T00:59:59;0.73;;;0.55;;
71164;SDS011;58859;55.132;-1.586;2022-10-16T01:02:25;3.50;;;0.63;;
71164;SDS011;58859;55.132;-1.586;2022-10-16T01:04:51;2.95;;;0.75;;
71164;SDS011;58859;55.132;-1.586;2022-10-16T01:13:18;3.30;;;0.43;;
71164;SDS011;58859;55.132;-1.586;2022-10-16T01:16:05;2.05;;;0.60;;
71164;SDS011;58859;55.132;-1.586;2022-10-16T01:18:45;1.67;;;0.52;;
71164;SDS011;58859;55.132;-1.586;2022-10-16T01:21:13;0.53;;;0.30;;
71164;SDS011;58859;55.132;-1.586;2022-10-16T01:23:59;1.70;;;0.73;;
71164;SDS011;58859;55.132;-1.586;2022-10-16T01:29:26;0.57;;;0.30;;
71164;SDS011;58859;55.132;-1.586;2022-10-16T01:31:56;1.08;;;0.40;;
71164;SDS011;58859;55.132;-1.586;2022-10-16T01:34:33;1.07;;;0.30;;
71164;SDS011;58859;55.132;-1.586;2022-10-16T01:37:04;2.90;;;0.80;;
71164;SDS011;58859;55.132;-1.586;2022-10-16T01:39:32;2.22;;;0.80;;
71164;SDS011;58859;55.132;-1.586;2022-10-16T01:42:01;1.17;;;0.47;;
71164;SDS011;58859;55.132;-1.586;2022-10-16T01:44:39;1.88;;;0.80;;
71164;SDS011;58859;55.132;-1.586;2022-10-16T01:47:05;4.57;;;0.60;;
71164;SDS011;58859;55.132;-1.586;2022-10-16T01:49:33;2.03;;;0.93;;
71164;SDS011;58859;55.132;-1.586;2022-10-16T01:52:00;1.33;;;0.40;;
71164;SDS011;58859;55.132;-1.586;2022-10-16T01:54:28;1.13;;;0.63;;
71164;SDS011;58859;55.132;-1.586;2022-10-16T01:56:56;1.33;;;0.43;;
71164;SDS011;58859;55.132;-1.586;2022-10-16T01:59:23;2.22;;;0.70;;
71164;SDS011;58859;55.132;-1.586;2022-10-16T02:01:52;1.63;;;0.75;;
71164;SDS011;58859;55.132;-1.586;2022-10-16T02:04:23;3.85;;;1.10;;
71164;SDS011;58859;55.132;-1.586;2022-10-16T02:06:52;0.90;;;0.40;;
71164;SDS011;58859;55.132;-1.586;2022-10-16T02:09:17;4.83;;;0.70;;
71164;SDS011;58859;55.132;-1.586;2022-10-16T02:11:43;2.03;;;0.73;;
71164;SDS011;58859;55.132;-1.586;2022-10-16T02:14:09;2.40;;;0.73;;
71164;SDS011;58859;55.132;-1.586;2022-10-16T02:16:39;2.20;;;0.73;;
71164;SDS011;58859;55.132;-1.586;2022-10-16T02:19:06;2.85;;;0.80;;
71164;SDS011;58859;55.132;-1.586;2022-10-16T02:21:54;3.20;;;0.97;;
71164;SDS011;58859;55.132;-1.586;2022-10-16T02:29:59;3.45;;;0.52;;
71164;SDS011;58859;55.132;-1.586;2022-10-16T02:32:32;3.25;;;0.65;;
71164;SDS011;58859;55.132;-1.586;2022-10-16T02:34:59;1.43;;;0.80;;
71164;SDS011;58859;55.132;-1.586;2022-10-16T02:37:25;3.15;;;0.57;;
71164;SDS011;58859;55.132;-1.586;2022-10-16T02:39:51;1.23;;;0.60;;
71164;SDS011;58859;55.132;-1.586;2022-10-16T02:42:18;2.88;;;0.70;;
71164;SDS011;58859;55.132;-1.586;2022-10-16T02:44:43;4.20;;;0.90;;
71164;SDS011;58859;55.132;-1.586;2022-10-16T02:47:09;1.48;;;0.77;;
71164;SDS011;58859;55.132;-1.586;2022-10-16T02:49:34;2.10;;;0.90;;
71164;SDS011;58859;55.132;-1.586;2022-10-16T02:52:00;1.40;;;0.70;;
71164;SDS011;58859;55.132;-1.586;2022-10-16T02:54:25;0.65;;;0.65;;
71164;SDS011;58859;55.132;-1.586;2022-10-16T02:56:51;0.97;;;0.40;;
71164;SDS011;58859;55.132;-1.586;2022-10-16T02:59:17;0.50;;;0.50;;
71164;SDS011;58859;55.132;-1.586;2022-10-16T03:01:42;2.05;;;0.77;;
71164;SDS011;58859;55.132;-1.586;2022-10-16T03:04:08;0.93;;;0.70;;
71164;SDS011;58859;55.132;-1.586;2022-10-16T03:06:34;1.43;;;0.63;;
71164;SDS011;58859;55.132;-1.586;2022-10-16T03:08:59;3.13;;;0.93;;
71164;SDS011;58859;55.132;-1.586;2022-10-16T03:11:25;2.23;;;0.73;;
71164;SDS011;58859;55.132;-1.586;2022-10-16T03:13:51;1.73;;;1.10;;
71164;SDS011;58859;55.132;-1.586;2022-10-16T03:16:17;1.60;;;0.98;;
71164;SDS011;58859;55.132;-1.586;2022-10-16T03:18:42;2.23;;;0.60;;
71164;SDS011;58859;55.132;-1.586;2022-10-16T03:21:08;3.23;;;0.90;;
71164;SDS011;58859;55.132;-1.586;2022-10-16T03:23:33;2.90;;;0.70;;
71164;SDS011;58859;55.132;-1.586;2022-10-16T03:25:59;0.60;;;0.60;;
71164;SDS011;58859;55.132;-1.586;2022-10-16T03:28:24;1.07;;;0.60;;
71164;SDS011;58859;55.132;-1.586;2022-10-16T03:30:50;0.50;;;0.50;;
71164;SDS011;58859;55.132;-1.586;2022-10-16T03:33:15;0.60;;;0.60;;
71164;SDS011;58859;55.132;-1.586;2022-10-16T03:35:40;1.75;;;0.30;;
71164;SDS011;58859;55.132;-1.586;2022-10-16T03:38:06;1.67;;;0.70;;
71164;SDS011;58859;55.132;-1.586;2022-10-16T03:40:31;3.03;;;0.60;;
71164;SDS011;58859;55.132;-1.586;2022-10-16T03:42:57;2.37;;;1.00;;
71164;SDS011;58859;55.132;-1.586;2022-10-16T03:45:23;0.47;;;0.47;;
71164;SDS011;58859;55.132;-1.586;2022-10-16T03:47:49;0.98;;;0.98;;
71164;SDS011;58859;55.132;-1.586;2022-10-16T03:50:14;1.20;;;0.53;;
71164;SDS011;58859;55.132;-1.586;2022-10-16T03:52:40;1.37;;;0.63;;
71164;SDS011;58859;55.132;-1.586;2022-10-16T03:55:06;2.42;;;1.13;;
71164;SDS011;58859;55.132;-1.586;2022-10-16T03:57:32;2.47;;;0.60;;
71164;SDS011;58859;55.132;-1.586;2022-10-16T03:59:57;2.38;;;0.65;;
71164;SDS011;58859;55.132;-1.586;2022-10-16T04:02:22;5.93;;;0.87;;
71164;SDS011;58859;55.132;-1.586;2022-10-16T04:04:48;2.53;;;0.77;;
71164;SDS011;58859;55.132;-1.586;2022-10-16T04:07:13;2.05;;;0.60;;
71164;SDS011;58859;55.132;-1.586;2022-10-16T04:09:39;0.97;;;0.47;;
71164;SDS011;58859;55.132;-1.586;2022-10-16T04:12:04;1.87;;;0.50;;
71164;SDS011;58859;55.132;-1.586;2022-10-16T04:14:30;0.87;;;0.80;;
71164;SDS011;58859;55.132;-1.586;2022-10-16T04:16:55;3.03;;;0.63;;
71164;SDS011;58859;55.132;-1.586;2022-10-16T04:19:21;1.27;;;0.33;;
71164;SDS011;58859;55.132;-1.586;2022-10-16T04:21:46;0.60;;;0.60;;
71164;SDS011;58859;55.132;-1.586;2022-10-16T04:24:12;0.77;;;0.60;;
71164;SDS011;58859;55.132;-1.586;2022-10-16T04:26:37;2.67;;;0.55;;
71164;SDS011;58859;55.132;-1.586;2022-10-16T04:29:03;0.45;;;0.38;;
71164;SDS011;58859;55.132;-1.586;2022-10-16T04:31:28;1.30;;;0.43;;
71164;SDS011;58859;55.132;-1.586;2022-10-16T04:33:54;0.70;;;0.70;;
71164;SDS011;58859;55.132;-1.586;2022-10-16T04:36:19;1.53;;;0.47;;
71164;SDS011;58859;55.132;-1.586;2022-10-16T04:38:45;1.10;;;0.50;;
71164;SDS011;58859;55.132;-1.586;2022-10-16T04:41:10;0.93;;;0.40;;
71164;SDS011;58859;55.132;-1.586;2022-10-16T04:43:35;1.73;;;0.90;;
71164;SDS011;58859;55.132;-1.586;2022-10-16T04:46:01;1.75;;;0.35;;
71164;SDS011;58859;55.132;-1.586;2022-10-16T04:48:27;1.53;;;0.53;;
71164;SDS011;58859;55.132;-1.586;2022-10-16T04:50:52;1.30;;;0.40;;
71164;SDS011;58859;55.132;-1.586;2022-10-16T04:53:17;3.60;;;0.68;;
71164;SDS011;58859;55.132;-1.586;2022-10-16T04:55:43;2.33;;;0.53;;
71164;SDS011;58859;55.132;-1.586;2022-10-16T04:58:09;1.27;;;0.60;;
71164;SDS011;58859;55.132;-1.586;2022-10-16T05:00:35;4.38;;;0.70;;
71164;SDS011;58859;55.132;-1.586;2022-10-16T05:03:01;3.33;;;0.70;;
71164;SDS011;58859;55.132;-1.586;2022-10-16T05:05:31;1.70;;;0.55;;
71164;SDS011;58859;55.132;-1.586;2022-10-16T05:07:57;0.60;;;0.60;;
71164;SDS011;58859;55.132;-1.586;2022-10-16T05:10:22;3.88;;;0.40;;
71164;SDS011;58859;55.132;-1.586;2022-10-16T05:12:47;2.00;;;0.70;;
71164;SDS011;58859;55.132;-1.586;2022-10-16T05:15:13;4.17;;;0.70;;
71164;SDS011;58859;55.132;-1.586;2022-10-16T05:17:39;2.45;;;1.08;;
71164;SDS011;58859;55.132;-1.586;2022-10-16T05:20:04;2.53;;;0.70;;
71164;SDS011;58859;55.132;-1.586;2022-10-16T05:22:30;2.60;;;0.70;;
71164;SDS011;58859;55.132;-1.586;2022-10-16T05:24:56;1.17;;;0.53;;
71164;SDS011;58859;55.132;-1.586;2022-10-16T05:27:21;1.33;;;0.30;;
71164;SDS011;58859;55.132;-1.586;2022-10-16T05:29:47;2.23;;;0.50;;
71164;SDS011;58859;55.132;-1.586;2022-10-16T05:32:14;0.35;;;0.35;;
71164;SDS011;58859;55.132;-1.586;2022-10-16T05:34:40;3.70;;;0.60;;
71164;SDS011;58859;55.132;-1.586;2022-10-16T05:37:06;0.57;;;0.50;;
71164;SDS011;58859;55.132;-1.586;2022-10-16T05:39:33;0.73;;;0.43;;
71164;SDS011;58859;55.132;-1.586;2022-10-16T05:41:58;1.75;;;0.50;;
71164;SDS011;58859;55.132;-1.586;2022-10-16T05:44:24;1.03;;;0.30;;
71164;SDS011;58859;55.132;-1.586;2022-10-16T05:46:49;0.10;;;0.10;;
71164;SDS011;58859;55.132;-1.586;2022-10-16T05:49:15;0.87;;;0.50;;
71164;SDS011;58859;55.132;-1.586;2022-10-16T05:51:40;1.13;;;0.35;;
71164;SDS011;58859;55.132;-1.586;2022-10-16T05:54:06;3.92;;;0.70;;
71164;SDS011;58859;55.132;-1.586;2022-10-16T05:56:32;0.63;;;0.35;;
71164;SDS011;58859;55.132;-1.586;2022-10-16T05:58:58;2.43;;;0.50;;
71164;SDS011;58859;55.132;-1.586;2022-10-16T06:01:23;1.92;;;0.60;;
71164;SDS011;58859;55.132;-1.586;2022-10-16T06:03:50;0.52;;;0.52;;
71164;SDS011;58859;55.132;-1.586;2022-10-16T06:06:22;0.20;;;0.20;;
71164;SDS011;58859;55.132;-1.586;2022-10-16T06:08:49;0.65;;;0.30;;
71164;SDS011;58859;55.132;-1.586;2022-10-16T06:11:15;3.05;;;1.40;;
71164;SDS011;58859;55.132;-1.586;2022-10-16T06:13:42;1.23;;;0.20;;
71164;SDS011;58859;55.132;-1.586;2022-10-16T06:16:08;0.80;;;0.60;;
71164;SDS011;58859;55.132;-1.586;2022-10-16T06:18:35;0.60;;;0.60;;
71164;SDS011;58859;55.132;-1.586;2022-10-16T06:21:06;0.90;;;0.50;;
71164;SDS011;58859;55.132;-1.586;2022-10-16T06:23:35;0.55;;;0.40;;
71164;SDS011;58859;55.132;-1.586;2022-10-16T06:26:04;1.00;;;0.63;;
71164;SDS011;58859;55.132;-1.586;2022-10-16T06:28:31;2.08;;;0.85;;
71164;SDS011;58859;55.132;-1.586;2022-10-16T06:30:59;4.50;;;0.93;;
71164;SDS011;58859;55.132;-1.586;2022-10-16T06:33:25;1.60;;;0.40;;
71164;SDS011;58859;55.132;-1.586;2022-10-16T06:35:51;0.65;;;0.50;;
71164;SDS011;58859;55.132;-1.586;2022-10-16T06:38:17;1.43;;;0.40;;
71164;SDS011;58859;55.132;-1.586;2022-10-16T06:40:42;1.17;;;0.73;;
71164;SDS011;58859;55.132;-1.586;2022-10-16T06:43:08;0.70;;;0.50;;
71164;SDS011;58859;55.132;-1.586;2022-10-16T06:45:33;4.10;;;0.65;;
71164;SDS011;58859;55.132;-1.586;2022-10-16T06:47:59;4.33;;;0.60;;
71164;SDS011;58859;55.132;-1.586;2022-10-16T06:50:24;1.70;;;0.77;;
71164;SDS011;58859;55.132;-1.586;2022-10-16T06:52:50;0.93;;;0.50;;
71164;SDS011;58859;55.132;-1.586;2022-10-16T06:55:15;4.45;;;0.70;;
71164;SDS011;58859;55.132;-1.586;2022-10-16T06:57:42;1.08;;;0.50;;
71164;SDS011;58859;55.132;-1.586;2022-10-16T07:00:08;2.63;;;1.50;;
71164;SDS011;58859;55.132;-1.586;2022-10-16T07:02:34;0.70;;;0.70;;
71164;SDS011;58859;55.132;-1.586;2022-10-16T07:04:59;0.80;;;0.77;;
71164;SDS011;58859;55.132;-1.586;2022-10-16T07:07:25;0.50;;;0.30;;
71164;SDS011;58859;55.132;-1.586;2022-10-16T07:09:51;1.03;;;0.73;;
71164;SDS011;58859;55.132;-1.586;2022-10-16T07:12:17;1.17;;;0.50;;
71164;SDS011;58859;55.132;-1.586;2022-10-16T07:14:43;1.50;;;0.50;;
71164;SDS011;58859;55.132;-1.586;2022-10-16T07:17:08;3.40;;;0.77;;
71164;SDS011;58859;55.132;-1.586;2022-10-16T07:19:33;3.37;;;0.83;;
71164;SDS011;58859;55.132;-1.586;2022-10-16T07:21:59;4.80;;;0.90;;
71164;SDS011;58859;55.132;-1.586;2022-10-16T07:24:25;3.30;;;0.60;;
71164;SDS011;58859;55.132;-1.586;2022-10-16T07:26:50;1.93;;;0.80;;
71164;SDS011;58859;55.132;-1.586;2022-10-16T07:29:20;1.47;;;0.73;;
71164;SDS011;58859;55.132;-1.586;2022-10-16T07:31:47;4.38;;;0.80;;
71164;SDS011;58859;55.132;-1.586;2022-10-16T07:34:14;5.57;;;0.90;;
71164;SDS011;58859;55.132;-1.586;2022-10-16T07:36:40;1.45;;;0.77;;
71164;SDS011;58859;55.132;-1.586;2022-10-16T07:39:06;3.50;;;0.63;;
71164;SDS011;58859;55.132;-1.586;2022-10-16T07:41:31;2.63;;;0.80;;
71164;SDS011;58859;55.132;-1.586;2022-10-16T07:43:58;1.50;;;0.40;;
71164;SDS011;58859;55.132;-1.586;2022-10-16T07:46:25;3.42;;;0.98;;
71164;SDS011;58859;55.132;-1.586;2022-10-16T07:48:51;3.80;;;0.90;;
71164;SDS011;58859;55.132;-1.586;2022-10-16T07:51:18;1.45;;;0.90;;
71164;SDS011;58859;55.132;-1.586;2022-10-16T07:53:45;1.37;;;0.70;;
71164;SDS011;58859;55.132;-1.586;2022-10-16T07:56:11;2.20;;;0.80;;
71164;SDS011;58859;55.132;-1.586;2022-10-16T07:58:36;2.15;;;0.80;;
71164;SDS011;58859;55.132;-1.586;2022-10-16T08:01:03;1.37;;;0.80;;
71164;SDS011;58859;55.132;-1.586;2022-10-16T08:03:30;2.22;;;1.02;;
71164;SDS011;58859;55.132;-1.586;2022-10-16T08:05:57;0.45;;;0.40;;
71164;SDS011;58859;55.132;-1.586;2022-10-16T08:08:23;1.75;;;0.65;;
71164;SDS011;58859;55.132;-1.586;2022-10-16T08:10:48;5.53;;;1.27;;
71164;SDS011;58859;55.132;-1.586;2022-10-16T08:13:14;2.53;;;1.10;;
71164;SDS011;58859;55.132;-1.586;2022-10-16T08:15:40;3.92;;;0.70;;
71164;SDS011;58859;55.132;-1.586;2022-10-16T08:18:09;2.88;;;0.43;;
71164;SDS011;58859;55.132;-1.586;2022-10-16T08:20:35;9.50;;;1.02;;
71164;SDS011;58859;55.132;-1.586;2022-10-16T08:23:00;2.13;;;0.70;;
71164;SDS011;58859;55.132;-1.586;2022-10-16T08:25:26;4.60;;;0.60;;
71164;SDS011;58859;55.132;-1.586;2022-10-16T08:27:52;1.83;;;0.40;;
71164;SDS011;58859;55.132;-1.586;2022-10-16T08:30:31;5.50;;;0.75;;
71164;SDS011;58859;55.132;-1.586;2022-10-16T08:32:56;2.33;;;0.43;;
71164;SDS011;58859;55.132;-1.586;2022-10-16T08:35:23;3.08;;;0.50;;
71164;SDS011;58859;55.132;-1.586;2022-10-16T08:37:48;2.92;;;0.52;;
71164;SDS011;58859;55.132;-1.586;2022-10-16T08:40:18;1.87;;;1.13;;
71164;SDS011;58859;55.132;-1.586;2022-10-16T08:48:19;1.13;;;0.70;;
71164;SDS011;58859;55.132;-1.586;2022-10-16T08:50:49;4.30;;;0.82;;
71164;SDS011;58859;55.132;-1.586;2022-10-16T08:53:18;0.82;;;0.70;;
71164;SDS011;58859;55.132;-1.586;2022-10-16T08:55:52;1.17;;;0.32;;
71164;SDS011;58859;55.132;-1.586;2022-10-16T08:58:19;1.73;;;0.43;;
71164;SDS011;58859;55.132;-1.586;2022-10-16T09:00:53;1.40;;;0.50;;
71164;SDS011;58859;55.132;-1.586;2022-10-16T09:06:02;1.08;;;0.60;;
71164;SDS011;58859;55.132;-1.586;2022-10-16T09:08:54;10.20;;;0.50;;
71164;SDS011;58859;55.132;-1.586;2022-10-16T09:11:30;2.20;;;0.63;;
71164;SDS011;58859;55.132;-1.586;2022-10-16T09:14:01;1.03;;;0.30;;
71164;SDS011;58859;55.132;-1.586;2022-10-16T09:16:31;1.35;;;0.38;;
71164;SDS011;58859;55.132;-1.586;2022-10-16T09:21:42;2.58;;;0.30;;
71164;SDS011;58859;55.132;-1.586;2022-10-16T09:26:38;2.63;;;0.50;;
71164;SDS011;58859;55.132;-1.586;2022-10-16T09:29:03;1.38;;;0.52;;
71164;SDS011;58859;55.132;-1.586;2022-10-16T09:31:29;1.13;;;0.43;;
71164;SDS011;58859;55.132;-1.586;2022-10-16T09:33:55;1.07;;;0.20;;
71164;SDS011;58859;55.132;-1.586;2022-10-16T09:36:23;2.83;;;0.35;;
71164;SDS011;58859;55.132;-1.586;2022-10-16T09:39:00;2.70;;;0.57;;
71164;SDS011;58859;55.132;-1.586;2022-10-16T09:41:27;2.45;;;0.50;;
71164;SDS011;58859;55.132;-1.586;2022-10-16T09:43:56;0.73;;;0.40;;
71164;SDS011;58859;55.132;-1.586;2022-10-16T09:46:25;1.85;;;0.50;;
71164;SDS011;58859;55.132;-1.586;2022-10-16T09:49:04;0.93;;;0.52;;
71164;SDS011;58859;55.132;-1.586;2022-10-16T09:51:41;2.28;;;0.63;;
71164;SDS011;58859;55.132;-1.586;2022-10-16T09:56:33;0.90;;;0.40;;
71164;SDS011;58859;55.132;-1.586;2022-10-16T09:59:17;1.77;;;0.40;;
71164;SDS011;58859;55.132;-1.586;2022-10-16T10:01:48;1.10;;;0.32;;
71164;SDS011;58859;55.132;-1.586;2022-10-16T10:04:15;2.58;;;0.60;;
71164;SDS011;58859;55.132;-1.586;2022-10-16T10:09:19;1.77;;;0.52;;
71164;SDS011;58859;55.132;-1.586;2022-10-16T10:11:48;3.33;;;0.52;;
71164;SDS011;58859;55.132;-1.586;2022-10-16T10:16:53;3.00;;;0.68;;
71164;SDS011;58859;55.132;-1.586;2022-10-16T10:19:48;4.28;;;0.30;;
71164;SDS011;58859;55.132;-1.586;2022-10-16T10:22:31;0.70;;;0.43;;
71164;SDS011;58859;55.132;-1.586;2022-10-16T10:35:54;2.38;;;0.43;;
71164;SDS011;58859;55.132;-1.586;2022-10-16T10:44:16;2.25;;;0.70;;
71164;SDS011;58859;55.132;-1.586;2022-10-16T10:47:24;2.30;;;0.30;;
71164;SDS011;58859;55.132;-1.586;2022-10-16T10:50:08;4.20;;;0.77;;
71164;SDS011;58859;55.132;-1.586;2022-10-16T10:52:45;3.85;;;0.80;;
71164;SDS011;58859;55.132;-1.586;2022-10-16T10:58:39;2.72;;;0.35;;
71164;SDS011;58859;55.132;-1.586;2022-10-16T11:01:17;1.73;;;0.55;;
71164;SDS011;58859;55.132;-1.586;2022-10-16T11:09:26;2.00;;;0.40;;
71164;SDS011;58859;55.132;-1.586;2022-10-16T11:14:58;1.13;;;0.60;;
71164;SDS011;58859;55.132;-1.586;2022-10-16T11:20:45;2.78;;;0.40;;
71164;SDS011;58859;55.132;-1.586;2022-10-16T11:23:23;2.25;;;0.63;;
71164;SDS011;58859;55.132;-1.586;2022-10-16T11:25:52;1.17;;;0.35;;
71164;SDS011;58859;55.132;-1.586;2022-10-16T11:28:20;2.55;;;0.47;;
71164;SDS011;58859;55.132;-1.586;2022-10-16T11:30:57;1.98;;;0.40;;
71164;SDS011;58859;55.132;-1.586;2022-10-16T11:41:34;2.65;;;0.55;;
71164;SDS011;58859;55.132;-1.586;2022-10-16T11:44:32;3.97;;;0.50;;
71164;SDS011;58859;55.132;-1.586;2022-10-16T11:50:20;1.80;;;0.40;;
71164;SDS011;58859;55.132;-1.586;2022-10-16T11:53:13;4.50;;;1.02;;
71164;SDS011;58859;55.132;-1.586;2022-10-16T11:55:59;2.28;;;0.55;;
71164;SDS011;58859;55.132;-1.586;2022-10-16T11:58:26;1.70;;;0.80;;
71164;SDS011;58859;55.132;-1.586;2022-10-16T12:08:19;0.88;;;0.32;;
71164;SDS011;58859;55.132;-1.586;2022-10-16T12:10:46;2.80;;;0.50;;
71164;SDS011;58859;55.132;-1.586;2022-10-16T12:13:31;1.73;;;0.40;;
71164;SDS011;58859;55.132;-1.586;2022-10-16T12:16:05;0.98;;;0.30;;
71164;SDS011;58859;55.132;-1.586;2022-10-16T12:18:36;2.50;;;0.73;;
71164;SDS011;58859;55.132;-1.586;2022-10-16T12:21:03;3.50;;;0.50;;
71164;SDS011;58859;55.132;-1.586;2022-10-16T12:23:54;3.23;;;0.40;;
71164;SDS011;58859;55.132;-1.586;2022-10-16T12:31:47;1.38;;;0.32;;
71164;SDS011;58859;55.132;-1.586;2022-10-16T12:34:25;0.73;;;0.40;;
71164;SDS011;58859;55.132;-1.586;2022-10-16T12:36:53;2.88;;;0.43;;
71164;SDS011;58859;55.132;-1.586;2022-10-16T12:39:20;1.30;;;0.32;;
71164;SDS011;58859;55.132;-1.586;2022-10-16T12:42:00;3.40;;;0.73;;
71164;SDS011;58859;55.132;-1.586;2022-10-16T12:44:27;3.45;;;0.70;;
71164;SDS011;58859;55.132;-1.586;2022-10-16T12:46:57;4.38;;;0.85;;
71164;SDS011;58859;55.132;-1.586;2022-10-16T12:49:29;2.00;;;1.00;;
71164;SDS011;58859;55.132;-1.586;2022-10-16T12:51:57;3.60;;;0.60;;
71164;SDS011;58859;55.132;-1.586;2022-10-16T12:57:10;9.90;;;1.58;;
71164;SDS011;58859;55.132;-1.586;2022-10-16T13:00:24;1.83;;;0.75;;
71164;SDS011;58859;55.132;-1.586;2022-10-16T13:22:40;4.00;;;0.85;;
71164;SDS011;58859;55.132;-1.586;2022-10-16T13:27:50;2.00;;;0.63;;
71164;SDS011;58859;55.132;-1.586;2022-10-16T13:30:24;7.47;;;0.93;;
71164;SDS011;58859;55.132;-1.586;2022-10-16T13:33:02;3.28;;;0.57;;
71164;SDS011;58859;55.132;-1.586;2022-10-16T13:35:31;2.30;;;0.47;;
71164;SDS011;58859;55.132;-1.586;2022-10-16T13:38:05;4.82;;;0.60;;
71164;SDS011;58859;55.132;-1.586;2022-10-16T13:40:48;1.20;;;0.55;;
71164;SDS011;58859;55.132;-1.586;2022-10-16T13:43:27;2.13;;;0.60;;
71164;SDS011;58859;55.132;-1.586;2022-10-16T13:46:00;8.63;;;1.00;;
71164;SDS011;58859;55.132;-1.586;2022-10-16T13:48:28;1.95;;;0.40;;
71164;SDS011;58859;55.132;-1.586;2022-10-16T13:50:58;3.95;;;0.63;;
71164;SDS011;58859;55.132;-1.586;2022-10-16T13:53:30;4.72;;;0.60;;
71164;SDS011;58859;55.132;-1.586;2022-10-16T13:55:57;2.13;;;0.80;;
71164;SDS011;58859;55.132;-1.586;2022-10-16T13:58:22;1.50;;;0.40;;
71164;SDS011;58859;55.132;-1.586;2022-10-16T14:00:58;2.93;;;0.50;;
71164;SDS011;58859;55.132;-1.586;2022-10-16T14:03:26;2.30;;;0.77;;
71164;SDS011;58859;55.132;-1.586;2022-10-16T14:05:53;4.53;;;0.80;;
71164;SDS011;58859;55.132;-1.586;2022-10-16T14:08:21;2.72;;;0.57;;
71164;SDS011;58859;55.132;-1.586;2022-10-16T14:10:48;4.30;;;0.93;;
71164;SDS011;58859;55.132;-1.586;2022-10-16T14:13:19;3.22;;;1.40;;
71164;SDS011;58859;55.132;-1.586;2022-10-16T14:15:48;0.70;;;0.40;;
71164;SDS011;58859;55.132;-1.586;2022-10-16T14:18:19;4.43;;;1.23;;
71164;SDS011;58859;55.132;-1.586;2022-10-16T14:20:46;3.85;;;1.00;;
71164;SDS011;58859;55.132;-1.586;2022-10-16T14:23:29;4.38;;;0.90;;
71164;SDS011;58859;55.132;-1.586;2022-10-16T14:28:38;5.82;;;1.55;;
71164;SDS011;58859;55.132;-1.586;2022-10-16T14:31:24;6.35;;;1.15;;
71164;SDS011;58859;55.132;-1.586;2022-10-16T14:33:51;1.88;;;0.80;;
71164;SDS011;58859;55.132;-1.586;2022-10-16T14:36:17;4.90;;;0.80;;
71164;SDS011;58859;55.132;-1.586;2022-10-16T14:41:25;2.15;;;0.55;;
71164;SDS011;58859;55.132;-1.586;2022-10-16T14:43:52;2.33;;;0.30;;
71164;SDS011;58859;55.132;-1.586;2022-10-16T14:46:20;2.40;;;0.68;;
71164;SDS011;58859;55.132;-1.586;2022-10-16T14:48:51;3.92;;;0.85;;
71164;SDS011;58859;55.132;-1.586;2022-10-16T14:51:24;3.03;;;0.80;;
71164;SDS011;58859;55.132;-1.586;2022-10-16T14:53:51;5.25;;;1.30;;
71164;SDS011;58859;55.132;-1.586;2022-10-16T14:56:19;4.60;;;1.17;;
71164;SDS011;58859;55.132;-1.586;2022-10-16T14:58:47;5.68;;;1.70;;
71164;SDS011;58859;55.132;-1.586;2022-10-16T15:01:13;5.78;;;1.35;;
71164;SDS011;58859;55.132;-1.586;2022-10-16T15:03:39;2.72;;;0.90;;
71164;SDS011;58859;55.132;-1.586;2022-10-16T15:06:08;2.73;;;0.97;;
71164;SDS011;58859;55.132;-1.586;2022-10-16T15:08:36;3.88;;;0.90;;
71164;SDS011;58859;55.132;-1.586;2022-10-16T15:11:01;4.37;;;1.10;;
71164;SDS011;58859;55.132;-1.586;2022-10-16T15:13:27;4.13;;;0.70;;
71164;SDS011;58859;55.132;-1.586;2022-10-16T15:15:53;4.53;;;1.00;;
71164;SDS011;58859;55.132;-1.586;2022-10-16T15:18:19;2.47;;;0.77;;
71164;SDS011;58859;55.132;-1.586;2022-10-16T15:20:47;6.73;;;1.00;;
71164;SDS011;58859;55.132;-1.586;2022-10-16T15:23:18;3.75;;;0.82;;
71164;SDS011;58859;55.132;-1.586;2022-10-16T15:28:21;11.32;;;4.15;;
71164;SDS011;58859;55.132;-1.586;2022-10-16T15:30:54;3.28;;;1.08;;
71164;SDS011;58859;55.132;-1.586;2022-10-16T15:33:26;3.30;;;1.20;;
71164;SDS011;58859;55.132;-1.586;2022-10-16T15:35:58;4.25;;;1.52;;
71164;SDS011;58859;55.132;-1.586;2022-10-16T15:38:30;6.55;;;2.20;;
71164;SDS011;58859;55.132;-1.586;2022-10-16T15:41:03;7.78;;;3.05;;
71164;SDS011;58859;55.132;-1.586;2022-10-16T15:43:29;5.50;;;2.38;;
71164;SDS011;58859;55.132;-1.586;2022-10-16T15:48:27;4.35;;;1.13;;
71164;SDS011;58859;55.132;-1.586;2022-10-16T15:50:54;3.13;;;1.10;;
71164;SDS011;58859;55.132;-1.586;2022-10-16T15:53:21;2.53;;;1.00;;
71164;SDS011;58859;55.132;-1.586;2022-10-16T15:55:47;3.30;;;1.10;;
71164;SDS011;58859;55.132;-1.586;2022-10-16T15:58:16;4.40;;;1.50;;
71164;SDS011;58859;55.132;-1.586;2022-10-16T16:00:53;5.25;;;2.00;;
71164;SDS011;58859;55.132;-1.586;2022-10-16T16:03:21;5.00;;;2.42;;
71164;SDS011;58859;55.132;-1.586;2022-10-16T16:05:47;5.83;;;1.30;;
71164;SDS011;58859;55.132;-1.586;2022-10-16T16:08:16;6.35;;;1.20;;
71164;SDS011;58859;55.132;-1.586;2022-10-16T16:10:42;4.15;;;1.40;;
71164;SDS011;58859;55.132;-1.586;2022-10-16T16:13:08;7.27;;;2.37;;
71164;SDS011;58859;55.132;-1.586;2022-10-16T16:15:36;4.30;;;0.82;;
71164;SDS011;58859;55.132;-1.586;2022-10-16T16:18:04;4.50;;;3.00;;
71164;SDS011;58859;55.132;-1.586;2022-10-16T16:20:31;3.92;;;2.05;;
71164;SDS011;58859;55.132;-1.586;2022-10-16T16:23:00;3.08;;;1.60;;
71164;SDS011;58859;55.132;-1.586;2022-10-16T16:25:25;6.63;;;2.90;;
71164;SDS011;58859;55.132;-1.586;2022-10-16T16:27:51;5.95;;;3.13;;
71164;SDS011;58859;55.132;-1.586;2022-10-16T16:30:17;6.13;;;2.72;;
71164;SDS011;58859;55.132;-1.586;2022-10-16T16:32:44;11.90;;;4.82;;
71164;SDS011;58859;55.132;-1.586;2022-10-16T16:35:10;32.20;;;11.17;;
71164;SDS011;58859;55.132;-1.586;2022-10-16T16:37:38;18.67;;;7.53;;
71164;SDS011;58859;55.132;-1.586;2022-10-16T16:40:04;15.13;;;6.20;;
71164;SDS011;58859;55.132;-1.586;2022-10-16T16:42:30;14.35;;;5.55;;
71164;SDS011;58859;55.132;-1.586;2022-10-16T16:44:55;12.70;;;5.40;;
71164;SDS011;58859;55.132;-1.586;2022-10-16T16:47:21;11.95;;;4.90;;
71164;SDS011;58859;55.132;-1.586;2022-10-16T16:49:46;15.50;;;5.30;;